createdAt,value
2019-02-20T00:01:45.652Z,6.22
2019-02-20T00:04:14.782Z,6.17
2019-02-20T00:06:43.964Z,6.20
2019-02-20T00:09:13.115Z,6.19
2019-02-20T00:11:42.332Z,6.16
2019-02-20T00:14:11.472Z,6.13
2019-02-20T00:16:40.613Z,6.11
2019-02-20T00:19:09.760Z,6.07
2019-02-20T00:21:38.894Z,6.02
2019-02-20T00:24:08.049Z,5.99
2019-02-20T00:26:37.224Z,5.96
2019-02-20T00:29:06.391Z,5.94
2019-02-20T00:31:35.532Z,5.93
2019-02-20T00:34:04.662Z,5.92
2019-02-20T00:36:33.837Z,5.88
2019-02-20T00:39:03.668Z,5.87
2019-02-20T00:41:32.873Z,5.81
2019-02-20T00:44:16.434Z,5.79
2019-02-20T00:47:07.358Z,5.75
2019-02-20T00:49:39.960Z,5.72
2019-02-20T00:52:31.162Z,5.71
2019-02-20T00:55:00.522Z,5.70
2019-02-20T00:57:29.605Z,5.69
2019-02-20T00:59:58.826Z,5.68
2019-02-20T01:02:27.977Z,5.65
2019-02-20T01:04:57.138Z,5.63
2019-02-20T01:07:26.321Z,5.62
2019-02-20T01:09:55.408Z,5.61
2019-02-20T01:12:24.535Z,5.61
2019-02-20T01:14:53.656Z,5.63
2019-02-20T01:17:22.798Z,5.64
2019-02-20T01:19:51.982Z,5.62
2019-02-20T01:22:21.092Z,5.60
2019-02-20T01:24:50.200Z,5.58
2019-02-20T01:27:19.401Z,5.58
2019-02-20T01:29:48.509Z,5.58
2019-02-20T01:32:17.657Z,5.59
2019-02-20T01:34:46.787Z,5.58
2019-02-20T01:37:15.931Z,5.58
2019-02-20T01:39:45.062Z,5.60
2019-02-20T01:42:14.199Z,5.60
2019-02-20T01:44:43.317Z,5.57
2019-02-20T01:47:12.473Z,5.58
2019-02-20T01:49:43.714Z,5.56
2019-02-20T01:52:12.469Z,5.57
2019-02-20T01:54:41.604Z,5.56
2019-02-20T01:57:10.718Z,5.55
2019-02-20T01:59:39.903Z,5.53
2019-02-20T02:02:09.035Z,5.56
2019-02-20T02:04:38.131Z,5.57
2019-02-20T02:07:07.312Z,5.57
2019-02-20T02:09:36.445Z,5.57
2019-02-20T02:12:05.660Z,5.55
2019-02-20T02:14:34.827Z,5.57
2019-02-20T02:17:04.134Z,5.56
2019-02-20T02:19:33.260Z,5.56
2019-02-20T02:22:02.454Z,5.57
2019-02-20T02:24:31.658Z,5.56
2019-02-20T02:27:00.804Z,5.58
2019-02-20T02:29:29.929Z,5.56
2019-02-20T02:31:59.051Z,5.58
2019-02-20T02:34:28.187Z,5.58
2019-02-20T02:36:57.337Z,5.61
2019-02-20T02:39:26.465Z,5.64
2019-02-20T02:41:55.589Z,5.69
2019-02-20T02:44:24.742Z,5.71
2019-02-20T02:46:53.896Z,5.73
2019-02-20T02:49:23.014Z,5.74
2019-02-20T02:51:52.185Z,5.74
2019-02-20T02:54:21.281Z,5.75
2019-02-20T02:56:50.421Z,5.80
2019-02-20T02:59:19.575Z,5.81
2019-02-20T03:01:48.715Z,5.81
2019-02-20T03:04:17.853Z,5.82
2019-02-20T03:06:47.023Z,5.83
2019-02-20T03:09:16.142Z,5.83
2019-02-20T03:11:45.309Z,5.85
2019-02-20T03:14:14.450Z,5.83
2019-02-20T03:16:43.597Z,5.83
2019-02-20T03:19:12.788Z,5.81
2019-02-20T03:21:41.957Z,5.81
2019-02-20T03:24:11.094Z,5.81
2019-02-20T03:26:40.215Z,5.83
2019-02-20T03:29:09.320Z,5.86
2019-02-20T03:31:38.487Z,5.90
2019-02-20T03:34:09.019Z,5.92
2019-02-20T03:36:38.250Z,5.95
2019-02-20T03:39:07.719Z,5.96
2019-02-20T03:41:36.858Z,5.98
2019-02-20T03:44:06.002Z,5.99
2019-02-20T03:46:35.197Z,6.00
2019-02-20T03:49:04.338Z,6.00
2019-02-20T03:51:33.447Z,6.01
2019-02-20T03:54:02.591Z,6.01
2019-02-20T03:56:31.720Z,5.99
2019-02-20T03:59:00.871Z,6.01
2019-02-20T04:01:30.397Z,6.02
2019-02-20T04:03:59.587Z,6.03
2019-02-20T04:06:28.743Z,6.05
2019-02-20T04:08:57.857Z,6.05
2019-02-20T04:11:27.027Z,6.05
2019-02-20T04:13:56.128Z,6.05
2019-02-20T04:16:25.275Z,6.07
2019-02-20T04:18:54.407Z,6.07
2019-02-20T04:21:23.560Z,6.08
2019-02-20T04:24:01.818Z,6.10
2019-02-20T04:26:23.602Z,6.11
2019-02-20T04:28:52.742Z,6.12
2019-02-20T04:31:21.886Z,6.12
2019-02-20T04:33:51.047Z,6.11
2019-02-20T04:36:20.170Z,6.10
2019-02-20T04:38:49.280Z,6.10
2019-02-20T04:41:18.436Z,6.12
2019-02-20T04:43:47.556Z,6.13
2019-02-20T04:46:16.757Z,6.14
2019-02-20T04:48:45.970Z,6.14
2019-02-20T04:51:15.139Z,6.14
2019-02-20T04:53:44.249Z,6.13
2019-02-20T04:56:13.366Z,6.13
2019-02-20T04:58:42.629Z,6.13
2019-02-20T05:01:11.765Z,6.12
2019-02-20T05:03:40.931Z,6.12
2019-02-20T05:06:10.090Z,6.12
2019-02-20T05:08:39.223Z,6.12
2019-02-20T05:11:08.363Z,6.11
2019-02-20T05:13:37.508Z,6.11
2019-02-20T05:16:06.651Z,6.10
2019-02-20T05:18:35.831Z,6.08
2019-02-20T05:21:04.985Z,6.09
2019-02-20T05:23:34.123Z,6.08
2019-02-20T05:26:03.258Z,6.08
2019-02-20T05:28:32.391Z,6.09
2019-02-20T05:31:01.526Z,6.08
2019-02-20T05:33:32.681Z,6.08
2019-02-20T05:36:01.820Z,6.08
2019-02-20T05:38:30.946Z,6.09
2019-02-20T05:41:00.077Z,6.08
2019-02-20T05:43:29.213Z,6.07
2019-02-20T05:45:58.344Z,6.08
2019-02-20T05:48:27.505Z,6.07
2019-02-20T05:50:56.704Z,6.06
2019-02-20T05:53:25.829Z,6.05
2019-02-20T05:55:54.984Z,6.06
2019-02-20T05:58:24.123Z,6.06
2019-02-20T06:00:53.411Z,6.05
2019-02-20T06:03:22.555Z,6.03
2019-02-20T06:05:51.722Z,6.05
2019-02-20T06:08:20.832Z,6.03
2019-02-20T06:10:49.983Z,6.04
2019-02-20T06:13:19.113Z,6.03
2019-02-20T06:15:48.275Z,6.03
2019-02-20T06:18:17.388Z,6.01
2019-02-20T06:20:46.535Z,6.02
2019-02-20T06:23:15.699Z,6.02
2019-02-20T06:25:44.843Z,6.00
2019-02-20T06:28:13.962Z,6.00
2019-02-20T06:30:43.165Z,5.99
2019-02-20T06:33:12.312Z,5.98
2019-02-20T06:35:41.458Z,5.97
2019-02-20T06:38:29.700Z,5.98
2019-02-20T06:40:58.848Z,5.98
2019-02-20T06:43:27.994Z,5.97
2019-02-20T06:45:57.106Z,5.97
2019-02-20T06:48:28.006Z,5.96
2019-02-20T06:50:57.143Z,5.93
2019-02-20T06:53:26.316Z,5.91
2019-02-20T06:55:55.452Z,5.87
2019-02-20T06:58:24.772Z,5.86
2019-02-20T07:00:54.261Z,5.84
2019-02-20T07:03:23.999Z,5.84
2019-02-20T07:06:24.096Z,5.82
2019-02-20T07:09:28.052Z,5.82
2019-02-20T07:12:48.603Z,5.81
2019-02-20T07:15:56.555Z,5.83
2019-02-20T07:18:47.253Z,5.86
2019-02-20T07:22:00.161Z,5.87
2019-02-20T07:25:13.333Z,5.91
2019-02-20T07:28:32.471Z,5.96
2019-02-20T07:31:01.644Z,5.98
2019-02-20T07:33:30.851Z,5.98
2019-02-20T07:35:59.989Z,5.98
2019-02-20T07:38:29.123Z,5.99
2019-02-20T07:40:58.259Z,6.01
2019-02-20T07:43:27.484Z,6.03
2019-02-20T07:45:56.613Z,6.06
2019-02-20T07:48:25.724Z,6.09
2019-02-20T07:50:54.958Z,6.13
2019-02-20T07:53:24.104Z,6.16
2019-02-20T07:55:53.324Z,6.20
2019-02-20T07:58:22.467Z,6.22
2019-02-20T08:00:51.622Z,6.26
2019-02-20T08:03:20.761Z,6.27
2019-02-20T08:05:49.891Z,6.30
2019-02-20T08:08:19.116Z,6.33
2019-02-20T08:10:48.236Z,6.40
2019-02-20T08:13:17.390Z,6.48
2019-02-20T08:15:47.729Z,6.54
2019-02-20T08:18:16.843Z,6.59
2019-02-20T08:20:45.984Z,6.66
2019-02-20T08:23:15.135Z,6.71
2019-02-20T08:25:44.383Z,6.75
2019-02-20T08:28:13.533Z,6.84
2019-02-20T08:30:42.691Z,6.96
2019-02-20T08:33:11.843Z,7.04
2019-02-20T08:35:40.993Z,7.11
2019-02-20T08:38:10.517Z,7.17
2019-02-20T08:40:39.716Z,7.22
2019-02-20T08:43:08.855Z,7.28
2019-02-20T08:45:37.984Z,7.36
2019-02-20T08:48:07.112Z,7.48
2019-02-20T08:50:36.277Z,7.58
2019-02-20T08:53:05.442Z,7.65
2019-02-20T08:55:34.593Z,7.73
2019-02-20T08:58:03.739Z,7.78
2019-02-20T09:00:32.930Z,7.78
2019-02-20T09:03:02.058Z,7.79
2019-02-20T09:05:31.226Z,7.82
2019-02-20T09:08:00.382Z,7.82
2019-02-20T09:10:29.536Z,7.86
2019-02-20T09:12:58.640Z,7.87
2019-02-20T09:15:27.857Z,7.89
2019-02-20T09:17:56.998Z,7.92
2019-02-20T09:20:26.230Z,8.00
2019-02-20T09:22:55.364Z,8.10
2019-02-20T09:25:24.521Z,8.14
2019-02-20T09:27:53.682Z,8.14
2019-02-20T09:30:28.456Z,8.21
2019-02-20T09:32:53.729Z,8.22
2019-02-20T09:35:22.858Z,8.30
2019-02-20T09:37:52.028Z,8.26
2019-02-20T09:40:21.153Z,8.42
2019-02-20T09:42:50.350Z,8.43
2019-02-20T09:45:19.465Z,8.42
2019-02-20T09:47:48.637Z,8.44
2019-02-20T09:50:17.943Z,8.41
2019-02-20T09:52:52.395Z,8.42
2019-02-20T09:55:17.986Z,8.49
2019-02-20T09:57:47.129Z,8.57
2019-02-20T10:00:16.434Z,8.70
2019-02-20T10:02:47.288Z,8.80
2019-02-20T10:05:16.596Z,8.96
2019-02-20T10:07:45.762Z,9.14
2019-02-20T10:10:14.891Z,9.30
2019-02-20T10:12:44.116Z,9.43
2019-02-20T10:15:13.693Z,9.62
2019-02-20T10:17:42.864Z,9.79
2019-02-20T10:20:12.008Z,10.08
2019-02-20T10:22:41.166Z,10.23
2019-02-20T10:25:10.424Z,10.27
2019-02-20T10:27:39.556Z,10.40
2019-02-20T10:30:12.159Z,10.52
2019-02-20T10:32:43.586Z,10.63
2019-02-20T10:35:13.473Z,10.65
2019-02-20T10:37:42.618Z,10.67
2019-02-20T10:40:11.977Z,10.78
2019-02-20T10:42:41.151Z,10.81
2019-02-20T10:45:10.343Z,10.65
2019-02-20T10:47:39.503Z,10.78
2019-02-20T10:50:09.120Z,10.84
2019-02-20T10:52:38.286Z,10.96
2019-02-20T10:55:07.457Z,11.16
2019-02-20T10:57:37.801Z,11.51
2019-02-20T11:00:23.450Z,11.76
2019-02-20T11:02:44.730Z,12.02
2019-02-20T11:05:13.860Z,12.15
2019-02-20T11:07:43.017Z,12.36
2019-02-20T11:10:12.162Z,12.43
2019-02-20T11:12:41.299Z,12.34
2019-02-20T11:15:10.668Z,12.06
2019-02-20T11:17:39.817Z,11.84
2019-02-20T11:20:09.174Z,11.80
2019-02-20T11:22:38.346Z,11.88
2019-02-20T11:25:08.825Z,11.86
2019-02-20T11:27:39.482Z,11.83
2019-02-20T11:30:11.528Z,11.68
2019-02-20T11:32:40.663Z,11.72
2019-02-20T11:35:09.977Z,11.64
2019-02-20T11:37:39.111Z,11.64
2019-02-20T11:40:08.903Z,11.62
2019-02-20T11:42:38.133Z,11.60
2019-02-20T11:45:07.973Z,11.50
2019-02-20T11:47:37.193Z,11.50
2019-02-20T11:50:07.857Z,11.52
2019-02-20T11:52:38.625Z,11.54
2019-02-20T11:55:08.010Z,11.55
2019-02-20T11:57:37.192Z,11.50
2019-02-20T12:00:08.277Z,11.51
2019-02-20T12:02:37.798Z,11.44
2019-02-20T12:05:07.047Z,11.45
2019-02-20T12:07:36.205Z,11.39
2019-02-20T12:10:06.173Z,11.52
2019-02-20T12:12:35.343Z,11.69
2019-02-20T12:15:06.259Z,11.77
2019-02-20T12:17:35.430Z,11.94
2019-02-20T12:20:05.028Z,12.11
2019-02-20T12:22:34.166Z,12.22
2019-02-20T12:25:03.338Z,12.32
2019-02-20T12:27:33.133Z,12.46
2019-02-20T12:30:02.405Z,12.48
2019-02-20T12:32:31.578Z,12.51
2019-02-20T12:35:00.744Z,12.51
2019-02-20T12:37:29.877Z,12.53
2019-02-20T12:39:59.018Z,12.51
2019-02-20T12:42:28.182Z,12.45
2019-02-20T12:44:58.651Z,12.33
2019-02-20T12:47:27.869Z,12.28
2019-02-20T12:49:57.018Z,12.29
2019-02-20T12:52:26.572Z,12.30
2019-02-20T12:54:55.782Z,12.27
2019-02-20T12:57:24.975Z,12.36
2019-02-20T12:59:54.191Z,12.12
2019-02-20T13:02:23.337Z,12.26
2019-02-20T13:04:52.569Z,12.25
2019-02-20T13:07:21.858Z,12.22
2019-02-20T13:09:51.217Z,12.28
2019-02-20T13:12:20.446Z,12.30
2019-02-20T13:14:49.579Z,12.31
2019-02-20T13:17:18.768Z,12.33
2019-02-20T13:19:47.901Z,12.34
2019-02-20T13:22:17.036Z,12.23
2019-02-20T13:24:46.181Z,12.25
2019-02-20T13:27:22.494Z,12.30
2019-02-20T13:29:46.228Z,12.31
2019-02-20T13:32:16.090Z,12.18
2019-02-20T13:34:45.338Z,12.19
2019-02-20T13:37:14.544Z,12.16
2019-02-20T13:39:43.717Z,12.00
2019-02-20T13:42:12.901Z,12.03
2019-02-20T13:44:42.065Z,12.05
2019-02-20T13:47:11.299Z,12.03
2019-02-20T13:49:40.452Z,12.03
2019-02-20T13:52:09.604Z,11.88
2019-02-20T13:54:38.774Z,11.88
2019-02-20T13:57:08.073Z,11.95
2019-02-20T13:59:37.429Z,11.96
2019-02-20T14:02:06.715Z,12.01
2019-02-20T14:04:36.749Z,11.96
2019-02-20T14:07:05.902Z,12.05
2019-02-20T14:09:35.097Z,12.10
2019-02-20T14:12:04.239Z,12.08
2019-02-20T14:14:33.817Z,12.05
2019-02-20T14:17:02.977Z,12.10
2019-02-20T14:19:32.146Z,12.00
2019-02-20T14:22:01.287Z,11.95
2019-02-20T14:24:30.474Z,11.97
2019-02-20T14:26:59.601Z,11.96
2019-02-20T14:29:28.803Z,12.00
2019-02-20T14:31:57.959Z,12.05
2019-02-20T14:34:27.224Z,12.06
2019-02-20T14:36:56.395Z,12.02
2019-02-20T14:39:25.590Z,12.02
2019-02-20T14:41:54.744Z,11.92
2019-02-20T14:44:23.898Z,11.84
2019-02-20T14:46:53.434Z,11.77
2019-02-20T14:49:22.583Z,11.80
2019-02-20T14:51:51.820Z,11.78
2019-02-20T14:54:20.980Z,11.82
2019-02-20T14:56:50.185Z,11.80
2019-02-20T14:59:19.330Z,11.82
2019-02-20T15:01:48.556Z,11.86
2019-02-20T15:04:17.716Z,11.86
2019-02-20T15:06:46.896Z,11.85
2019-02-20T15:09:16.107Z,11.91
2019-02-20T15:11:45.310Z,11.89
2019-02-20T15:14:16.076Z,11.82
2019-02-20T15:16:45.427Z,11.81
2019-02-20T15:19:14.721Z,11.71
2019-02-20T15:21:43.985Z,11.74
2019-02-20T15:24:13.178Z,11.71
2019-02-20T15:26:42.313Z,11.71
2019-02-20T15:29:13.519Z,11.68
2019-02-20T15:31:42.911Z,11.73
2019-02-20T15:34:12.281Z,11.76
2019-02-20T15:36:43.933Z,11.80
2019-02-20T15:39:12.784Z,11.80
2019-02-20T15:41:43.329Z,11.78
2019-02-20T15:44:12.570Z,11.78
2019-02-20T15:46:41.920Z,11.79
2019-02-20T15:49:11.115Z,11.73
2019-02-20T15:51:40.399Z,11.69
2019-02-20T15:54:09.744Z,11.66
2019-02-20T15:56:38.948Z,11.59
2019-02-20T15:59:08.508Z,11.58
2019-02-20T16:01:37.738Z,11.53
2019-02-20T16:04:07.340Z,11.52
2019-02-20T16:06:37.499Z,11.49
2019-02-20T16:09:07.520Z,11.46
2019-02-20T16:11:36.707Z,11.45
2019-02-20T16:14:05.899Z,11.39
2019-02-20T16:16:35.065Z,11.33
2019-02-20T16:19:04.631Z,11.29
2019-02-20T16:21:33.816Z,11.24
2019-02-20T16:24:04.043Z,11.21
2019-02-20T16:26:33.679Z,11.19
2019-02-20T16:29:02.939Z,11.17
2019-02-20T16:31:32.234Z,11.11
2019-02-20T16:34:01.603Z,11.07
2019-02-20T16:36:30.816Z,11.04
2019-02-20T16:39:00.158Z,10.97
2019-02-20T16:41:29.321Z,10.94
2019-02-20T16:43:58.537Z,10.88
2019-02-20T16:46:28.450Z,10.83
2019-02-20T16:48:57.757Z,10.79
2019-02-20T16:51:26.942Z,10.75
2019-02-20T16:53:56.153Z,10.71
2019-02-20T16:56:25.406Z,10.67
2019-02-20T16:58:54.724Z,10.65
2019-02-20T17:01:23.913Z,10.62
2019-02-20T17:03:53.314Z,10.58
2019-02-20T17:06:22.866Z,10.56
2019-02-20T17:08:52.298Z,10.56
2019-02-20T17:11:21.467Z,10.54
2019-02-20T17:13:50.816Z,10.51
2019-02-20T17:16:20.113Z,10.47
2019-02-20T17:18:49.368Z,10.42
2019-02-20T17:21:18.840Z,10.41
2019-02-20T17:23:48.028Z,10.38
2019-02-20T17:26:17.295Z,10.37
2019-02-20T17:28:46.478Z,10.34
2019-02-20T17:31:15.876Z,10.31
2019-02-20T17:33:45.334Z,10.30
2019-02-20T17:36:14.992Z,10.29
2019-02-20T17:38:44.233Z,10.25
2019-02-20T17:41:13.436Z,10.24
2019-02-20T17:43:42.649Z,10.24
2019-02-20T17:46:11.817Z,10.22
2019-02-20T17:48:41.171Z,10.18
2019-02-20T17:51:10.725Z,10.16
2019-02-20T17:53:40.069Z,10.13
2019-02-20T17:56:09.457Z,10.10
2019-02-20T17:58:38.785Z,10.09
2019-02-20T18:01:16.585Z,10.07
2019-02-20T18:03:45.765Z,10.05
2019-02-20T18:06:15.124Z,10.01
2019-02-20T18:08:44.388Z,9.97
2019-02-20T18:11:13.673Z,9.93
2019-02-20T18:13:43.087Z,9.89
2019-02-20T18:16:12.303Z,9.85
2019-02-20T18:18:41.612Z,9.80
2019-02-20T18:21:10.788Z,9.77
2019-02-20T18:23:40.197Z,9.73
2019-02-20T18:26:09.388Z,9.69
2019-02-20T18:28:38.966Z,9.65
2019-02-20T18:31:08.269Z,9.61
2019-02-20T18:33:37.624Z,9.56
2019-02-20T18:36:07.039Z,9.48
2019-02-20T18:38:36.362Z,9.39
2019-02-20T18:41:05.628Z,9.35
2019-02-20T18:43:34.943Z,9.30
2019-02-20T18:46:04.574Z,9.24
2019-02-20T18:48:33.839Z,9.18
2019-02-20T18:51:03.215Z,9.13
2019-02-20T18:53:32.854Z,9.10
2019-02-20T18:56:02.258Z,9.05
2019-02-20T18:58:34.021Z,9.05
2019-02-20T19:01:02.722Z,9.03
2019-02-20T19:03:32.198Z,9.01
2019-02-20T19:06:01.680Z,8.99
2019-02-20T19:08:42.264Z,8.97
2019-02-20T19:11:27.598Z,8.95
2019-02-20T19:14:14.582Z,8.94
2019-02-20T19:17:33.510Z,8.90
2019-02-20T19:20:17.654Z,8.83
2019-02-20T19:23:50.858Z,8.77
2019-02-20T19:26:37.747Z,8.73
2019-02-20T19:30:05.045Z,8.67
2019-02-20T19:33:22.765Z,8.61
2019-02-20T19:36:48.109Z,8.57
2019-02-20T19:39:56.781Z,8.54
2019-02-20T19:43:12.622Z,8.47
2019-02-20T19:46:03.497Z,8.41
2019-02-20T19:49:11.369Z,8.38
2019-02-20T19:52:21.022Z,8.37
2019-02-20T19:55:15.365Z,8.38
2019-02-20T19:58:11.457Z,8.35
2019-02-20T20:01:12.763Z,8.33
2019-02-20T20:04:06.194Z,8.30
2019-02-20T20:07:19.982Z,8.31
2019-02-20T20:10:29.067Z,8.29
2019-02-20T20:13:23.102Z,8.26
2019-02-20T20:16:19.012Z,8.23
2019-02-20T20:19:40.991Z,8.19
2019-02-20T20:22:58.359Z,8.16
2019-02-20T20:25:56.533Z,8.15
2019-02-20T20:29:08.198Z,8.16
2019-02-20T20:31:50.571Z,8.15
2019-02-20T20:35:00.687Z,8.13
2019-02-20T20:38:00.665Z,8.11
2019-02-20T20:41:09.060Z,8.09
2019-02-20T20:44:13.658Z,8.07
2019-02-20T20:47:04.256Z,8.05
2019-02-20T20:50:04.822Z,8.04
2019-02-20T20:53:12.594Z,8.02
2019-02-20T20:55:54.615Z,8.01
2019-02-20T20:59:17.535Z,7.98
2019-02-20T21:01:50.076Z,7.98
2019-02-20T21:04:48.135Z,7.92
2019-02-20T21:07:39.338Z,7.90
2019-02-20T21:10:46.500Z,7.89
2019-02-20T21:13:47.159Z,7.86
2019-02-20T21:17:04.054Z,7.86
2019-02-20T21:20:35.140Z,7.86
2019-02-20T21:23:42.127Z,7.84
2019-02-20T21:27:03.907Z,7.82
2019-02-20T21:29:59.088Z,7.78
2019-02-20T21:32:44.135Z,7.72
2019-02-20T21:35:24.091Z,7.68
2019-02-20T21:38:43.099Z,7.66
2019-02-20T21:41:26.766Z,7.67
2019-02-20T21:44:22.070Z,7.66
2019-02-20T21:47:12.860Z,7.66
2019-02-20T21:50:26.205Z,7.65
2019-02-20T21:53:42.445Z,7.63
2019-02-20T21:56:32.560Z,7.60
2019-02-20T21:59:38.948Z,7.53
2019-02-20T22:02:32.437Z,7.51
2019-02-20T22:05:45.895Z,7.48
2019-02-20T22:08:53.273Z,7.44
2019-02-20T22:11:45.841Z,7.44
2019-02-20T22:15:07.885Z,7.44
2019-02-20T22:18:01.780Z,7.41
2019-02-20T22:21:07.638Z,7.40
2019-02-20T22:24:00.215Z,7.39
2019-02-20T22:26:42.815Z,7.35
2019-02-20T22:29:53.166Z,7.34
2019-02-20T22:33:10.709Z,7.34
2019-02-20T22:36:15.972Z,7.32
2019-02-20T22:39:23.270Z,7.28
2019-02-20T22:42:12.330Z,7.21
2019-02-20T22:45:17.268Z,7.19
2019-02-20T22:47:54.330Z,7.14
2019-02-20T22:51:02.500Z,7.11
2019-02-20T22:54:01.039Z,7.07
2019-02-20T22:57:14.132Z,7.07
2019-02-20T23:00:34.594Z,7.03
2019-02-20T23:03:14.427Z,6.98
2019-02-20T23:06:39.643Z,6.94
2019-02-20T23:10:07.835Z,6.90
2019-02-20T23:13:06.879Z,6.85
2019-02-20T23:15:36.051Z,6.79
2019-02-20T23:18:05.179Z,6.75
2019-02-20T23:20:34.397Z,6.72
2019-02-20T23:23:03.567Z,6.71
2019-02-20T23:25:32.725Z,6.71
2019-02-20T23:28:01.890Z,6.69
2019-02-20T23:30:31.214Z,6.68
2019-02-20T23:33:00.786Z,6.67
2019-02-20T23:35:30.075Z,6.67
2019-02-20T23:37:59.215Z,6.67
2019-02-20T23:40:28.376Z,6.67
2019-02-20T23:42:57.606Z,6.66
2019-02-20T23:45:26.766Z,6.67
2019-02-20T23:47:55.930Z,6.66
2019-02-20T23:50:25.065Z,6.63
2019-02-20T23:52:54.266Z,6.62
2019-02-20T23:55:23.400Z,6.61
2019-02-20T23:57:52.550Z,6.61
